createdAt,value
2019-03-05T00:00:49.879Z,99.99
2019-03-05T00:01:49.858Z,99.99
2019-03-05T00:02:49.835Z,99.99
2019-03-05T00:03:49.825Z,99.99
2019-03-05T00:04:49.792Z,99.99
2019-03-05T00:05:49.773Z,99.99
2019-03-05T00:06:49.753Z,99.99
2019-03-05T00:07:49.732Z,99.99
2019-03-05T00:08:49.707Z,99.99
2019-03-05T00:09:49.688Z,99.99
2019-03-05T00:10:49.672Z,99.99
2019-03-05T00:11:49.651Z,99.99
2019-03-05T00:12:49.634Z,99.99
2019-03-05T00:13:49.604Z,99.99
2019-03-05T00:14:49.587Z,99.99
2019-03-05T00:15:49.559Z,99.99
2019-03-05T00:16:49.540Z,99.99
2019-03-05T00:17:49.518Z,99.99
2019-03-05T00:18:49.499Z,99.99
2019-03-05T00:19:49.478Z,99.99
2019-03-05T00:20:49.460Z,99.99
2019-03-05T00:21:49.435Z,99.99
2019-03-05T00:22:49.412Z,99.99
2019-03-05T00:23:49.391Z,99.99
2019-03-05T00:24:49.371Z,99.99
2019-03-05T00:25:49.374Z,99.99
2019-03-05T00:26:49.326Z,99.99
2019-03-05T00:27:49.306Z,99.99
2019-03-05T00:28:49.290Z,99.99
2019-03-05T00:29:49.266Z,99.99
2019-03-05T00:30:49.240Z,99.99
2019-03-05T00:31:49.220Z,99.99
2019-03-05T00:32:49.202Z,99.99
2019-03-05T00:33:49.179Z,99.99
2019-03-05T00:34:49.157Z,99.99
2019-03-05T00:35:49.134Z,99.99
2019-03-05T00:36:49.115Z,99.99
2019-03-05T00:37:49.101Z,99.99
2019-03-05T00:38:49.071Z,99.99
2019-03-05T00:39:49.050Z,99.99
2019-03-05T00:40:49.032Z,99.99
2019-03-05T00:41:49.011Z,99.99
2019-03-05T00:42:49.000Z,99.99
2019-03-05T00:43:48.966Z,99.99
2019-03-05T00:44:48.946Z,99.99
2019-03-05T00:45:48.923Z,99.99
2019-03-05T00:46:48.904Z,99.99
2019-03-05T00:47:48.892Z,99.99
2019-03-05T00:48:48.860Z,99.99
2019-03-05T00:49:48.837Z,99.99
2019-03-05T00:50:48.817Z,99.99
2019-03-05T00:51:48.806Z,99.99
2019-03-05T00:52:48.781Z,99.99
2019-03-05T00:53:48.753Z,99.99
2019-03-05T00:54:48.732Z,99.99
2019-03-05T00:55:49.882Z,99.99
2019-03-05T00:56:48.696Z,99.99
2019-03-05T00:57:48.669Z,99.99
2019-03-05T00:58:48.654Z,99.99
2019-03-05T00:59:48.637Z,99.99
2019-03-05T01:00:48.608Z,99.99
2019-03-05T01:01:48.592Z,99.99
2019-03-05T01:02:48.570Z,99.99
2019-03-05T01:03:48.539Z,99.99
2019-03-05T01:04:48.520Z,99.99
2019-03-05T01:05:48.501Z,99.99
2019-03-05T01:06:48.480Z,99.99
2019-03-05T01:07:48.459Z,99.99
2019-03-05T01:08:48.436Z,99.99
2019-03-05T01:09:48.415Z,99.99
2019-03-05T01:10:48.398Z,99.99
2019-03-05T01:11:48.374Z,99.99
2019-03-05T01:12:48.354Z,99.99
2019-03-05T01:13:48.335Z,99.99
2019-03-05T01:14:48.311Z,99.99
2019-03-05T01:15:48.289Z,99.99
2019-03-05T01:16:48.273Z,99.99
2019-03-05T01:17:48.259Z,99.99
2019-03-05T01:18:48.225Z,99.99
2019-03-05T01:19:48.205Z,99.99
2019-03-05T01:20:48.188Z,99.99
2019-03-05T01:21:48.165Z,99.99
2019-03-05T01:22:48.150Z,99.99
2019-03-05T01:23:48.124Z,99.99
2019-03-05T01:24:48.102Z,99.99
2019-03-05T01:25:48.082Z,99.99
2019-03-05T01:26:48.063Z,99.99
2019-03-05T01:27:48.034Z,99.99
2019-03-05T01:28:48.014Z,99.99
2019-03-05T01:29:47.991Z,99.99
2019-03-05T01:30:47.973Z,99.99
2019-03-05T01:31:47.949Z,99.99
2019-03-05T01:32:47.929Z,99.99
2019-03-05T01:33:47.908Z,99.99
2019-03-05T01:34:47.887Z,99.99
2019-03-05T01:35:47.867Z,99.99
2019-03-05T01:36:47.846Z,99.99
2019-03-05T01:37:47.825Z,99.99
2019-03-05T01:38:47.804Z,99.99
2019-03-05T01:39:47.787Z,99.99
2019-03-05T01:40:47.761Z,99.99
2019-03-05T01:41:47.738Z,99.99
2019-03-05T01:42:47.726Z,99.99
2019-03-05T01:43:47.698Z,99.99
2019-03-05T01:44:47.675Z,99.99
2019-03-05T01:45:47.655Z,99.99
2019-03-05T01:46:47.637Z,99.99
2019-03-05T01:47:47.610Z,99.99
2019-03-05T01:48:47.593Z,99.99
2019-03-05T01:49:47.570Z,99.99
2019-03-05T01:50:47.550Z,99.99
2019-03-05T01:51:47.528Z,99.99
2019-03-05T01:52:47.506Z,99.99
2019-03-05T01:53:47.489Z,99.99
2019-03-05T01:54:47.464Z,99.99
2019-03-05T01:55:47.443Z,99.99
2019-03-05T01:56:47.431Z,99.99
2019-03-05T01:57:47.408Z,99.99
2019-03-05T01:58:47.379Z,99.99
2019-03-05T01:59:47.359Z,99.99
2019-03-05T02:00:47.336Z,99.99
2019-03-05T02:01:47.323Z,99.99
2019-03-05T02:02:47.301Z,99.99
2019-03-05T02:03:47.276Z,99.99
2019-03-05T02:04:47.255Z,99.99
2019-03-05T02:05:47.247Z,99.99
2019-03-05T02:06:47.210Z,99.99
2019-03-05T02:07:47.189Z,99.99
2019-03-05T02:08:47.170Z,99.99
2019-03-05T02:09:47.150Z,99.99
2019-03-05T02:10:47.126Z,99.99
2019-03-05T02:11:47.111Z,99.99
2019-03-05T02:12:47.083Z,99.99
2019-03-05T02:13:47.063Z,99.99
2019-03-05T02:14:47.041Z,99.99
2019-03-05T02:15:47.019Z,99.99
2019-03-05T02:16:47.004Z,99.93
2019-03-05T02:17:46.977Z,99.55
2019-03-05T02:18:46.961Z,98.88
2019-03-05T02:19:46.936Z,99.36
2019-03-05T02:20:46.916Z,98.79
2019-03-05T02:21:46.896Z,98.50
2019-03-05T02:22:46.875Z,98.22
2019-03-05T02:23:46.850Z,98.60
2019-03-05T02:24:46.828Z,98.12
2019-03-05T02:25:46.812Z,98.50
2019-03-05T02:26:46.788Z,98.41
2019-03-05T02:27:46.765Z,97.83
2019-03-05T02:28:46.748Z,98.31
2019-03-05T02:29:46.729Z,98.12
2019-03-05T02:30:46.702Z,98.50
2019-03-05T02:31:46.683Z,98.22
2019-03-05T02:32:46.662Z,98.69
2019-03-05T02:33:46.637Z,98.88
2019-03-05T02:34:46.616Z,98.17
2019-03-05T02:35:46.599Z,98.31
2019-03-05T02:36:46.577Z,98.41
2019-03-05T02:37:46.556Z,98.27
2019-03-05T02:38:46.533Z,98.12
2019-03-05T02:39:46.523Z,98.22
2019-03-05T02:40:46.493Z,97.83
2019-03-05T02:41:46.471Z,97.79
2019-03-05T02:42:46.448Z,96.98
2019-03-05T02:43:46.434Z,97.17
2019-03-05T02:44:46.409Z,97.22
2019-03-05T02:45:46.392Z,97.31
2019-03-05T02:46:46.373Z,96.74
2019-03-05T02:47:46.345Z,96.03
2019-03-05T02:48:46.323Z,96.22
2019-03-05T02:49:46.304Z,96.03
2019-03-05T02:50:46.280Z,95.17
2019-03-05T02:51:46.261Z,96.08
2019-03-05T02:52:46.241Z,96.03
2019-03-05T02:53:46.223Z,95.36
2019-03-05T02:54:46.197Z,96.08
2019-03-05T02:55:46.175Z,95.84
2019-03-05T02:56:46.159Z,96.31
2019-03-05T02:57:46.146Z,96.55
2019-03-05T02:58:46.117Z,96.50
2019-03-05T02:59:46.183Z,96.41
2019-03-05T03:00:46.075Z,95.84
2019-03-05T03:01:46.049Z,96.31
2019-03-05T03:02:46.037Z,96.79
2019-03-05T03:03:46.023Z,97.27
2019-03-05T03:04:45.988Z,98.08
2019-03-05T03:05:45.972Z,97.36
2019-03-05T03:06:45.944Z,97.36
2019-03-05T03:07:45.943Z,98.22
2019-03-05T03:08:45.902Z,97.55
2019-03-05T03:09:45.880Z,97.36
2019-03-05T03:10:45.859Z,97.45
2019-03-05T03:11:45.836Z,97.36
2019-03-05T03:12:45.821Z,97.74
2019-03-05T03:13:45.793Z,98.31
2019-03-05T03:14:45.775Z,96.89
2019-03-05T03:15:45.765Z,95.84
2019-03-05T03:16:45.734Z,95.84
2019-03-05T03:17:45.710Z,95.84
2019-03-05T03:18:45.688Z,95.17
2019-03-05T03:19:45.664Z,94.37
2019-03-05T03:20:45.644Z,93.99
2019-03-05T03:21:45.619Z,93.99
2019-03-05T03:22:45.601Z,93.99
2019-03-05T03:23:45.579Z,93.99
2019-03-05T03:24:45.556Z,94.56
2019-03-05T03:25:45.539Z,94.65
2019-03-05T03:26:45.579Z,95.70
2019-03-05T03:27:45.493Z,95.60
2019-03-05T03:28:45.476Z,96.17
2019-03-05T03:29:45.465Z,96.36
2019-03-05T03:30:45.435Z,96.55
2019-03-05T03:31:45.432Z,96.45
2019-03-05T03:32:45.409Z,97.22
2019-03-05T03:33:45.366Z,97.41
2019-03-05T03:34:45.401Z,97.17
2019-03-05T03:35:45.326Z,97.92
2019-03-05T03:36:45.304Z,98.02
2019-03-05T03:37:45.279Z,98.50
2019-03-05T03:38:45.258Z,98.31
2019-03-05T03:39:45.237Z,98.79
2019-03-05T03:40:45.224Z,99.73
2019-03-05T03:41:45.192Z,99.99
2019-03-05T03:42:45.171Z,99.99
2019-03-05T03:43:45.147Z,99.99
2019-03-05T03:44:45.128Z,99.99
2019-03-05T03:45:45.115Z,99.99
2019-03-05T03:46:45.083Z,99.99
2019-03-05T03:47:45.086Z,99.99
2019-03-05T03:48:45.045Z,99.99
2019-03-05T03:49:45.017Z,99.99
2019-03-05T03:50:44.997Z,99.99
2019-03-05T03:51:44.977Z,99.99
2019-03-05T03:52:44.959Z,99.99
2019-03-05T03:53:45.034Z,99.99
2019-03-05T03:54:44.909Z,99.99
2019-03-05T03:55:44.889Z,99.99
2019-03-05T03:56:44.871Z,99.99
2019-03-05T03:57:44.852Z,99.99
2019-03-05T03:58:44.832Z,99.99
2019-03-05T03:59:44.806Z,99.99
2019-03-05T04:00:44.782Z,99.99
2019-03-05T04:01:44.758Z,99.99
2019-03-05T04:02:44.744Z,99.99
2019-03-05T04:03:44.722Z,99.99
2019-03-05T04:04:44.697Z,99.99
2019-03-05T04:05:44.673Z,99.99
2019-03-05T04:06:44.660Z,99.99
2019-03-05T04:07:44.627Z,99.99
2019-03-05T04:08:44.605Z,99.99
2019-03-05T04:09:44.585Z,99.99
2019-03-05T04:10:44.558Z,99.99
2019-03-05T04:11:44.541Z,99.99
2019-03-05T04:12:44.521Z,99.99
2019-03-05T04:13:44.499Z,99.99
2019-03-05T04:14:44.477Z,99.99
2019-03-05T04:15:44.454Z,99.99
2019-03-05T04:16:44.427Z,99.99
2019-03-05T04:17:44.420Z,99.99
2019-03-05T04:18:44.408Z,99.99
2019-03-05T04:19:44.365Z,99.99
2019-03-05T04:20:44.427Z,99.99
2019-03-05T04:21:44.318Z,99.99
2019-03-05T04:22:44.301Z,99.99
2019-03-05T04:23:44.283Z,99.99
2019-03-05T04:24:44.252Z,99.99
2019-03-05T04:25:44.233Z,99.99
2019-03-05T04:26:44.208Z,99.99
2019-03-05T04:27:44.186Z,99.99
2019-03-05T04:28:44.175Z,99.99
2019-03-05T04:29:44.146Z,99.99
2019-03-05T04:30:44.120Z,99.99
2019-03-05T04:31:44.103Z,99.99
2019-03-05T04:32:44.079Z,99.99
2019-03-05T04:33:44.055Z,99.99
2019-03-05T04:34:44.038Z,99.99
2019-03-05T04:35:44.013Z,99.99
2019-03-05T04:36:43.989Z,99.99
2019-03-05T04:37:43.968Z,99.99
2019-03-05T04:38:43.945Z,99.99
2019-03-05T04:39:43.923Z,99.99
2019-03-05T04:40:43.913Z,99.99
2019-03-05T04:41:43.880Z,99.99
2019-03-05T04:42:43.877Z,99.99
2019-03-05T04:43:43.836Z,99.99
2019-03-05T04:44:43.825Z,99.99
2019-03-05T04:45:43.803Z,99.99
2019-03-05T04:46:43.774Z,99.99
2019-03-05T04:47:43.750Z,99.99
2019-03-05T04:48:43.728Z,99.99
2019-03-05T04:49:43.705Z,99.99
2019-03-05T04:50:43.689Z,99.99
2019-03-05T04:51:43.664Z,99.99
2019-03-05T04:52:43.643Z,99.99
2019-03-05T04:53:43.622Z,99.99
2019-03-05T04:54:43.602Z,99.99
2019-03-05T04:55:43.581Z,99.99
2019-03-05T04:56:43.556Z,99.99
2019-03-05T04:57:43.533Z,99.99
2019-03-05T04:58:43.511Z,99.99
2019-03-05T04:59:43.492Z,99.99
2019-03-05T05:00:43.470Z,99.99
2019-03-05T05:01:43.527Z,99.99
2019-03-05T05:02:43.424Z,99.99
2019-03-05T05:03:43.403Z,99.99
2019-03-05T05:04:43.383Z,99.99
2019-03-05T05:05:43.358Z,99.99
2019-03-05T05:06:43.336Z,99.99
2019-03-05T05:07:43.322Z,99.99
2019-03-05T05:08:43.297Z,99.99
2019-03-05T05:09:43.279Z,99.99
2019-03-05T05:10:43.251Z,99.99
2019-03-05T05:11:43.271Z,99.99
2019-03-05T05:12:43.211Z,99.99
2019-03-05T05:13:43.182Z,99.99
2019-03-05T05:14:43.160Z,99.99
2019-03-05T05:15:43.141Z,99.99
2019-03-05T05:16:43.127Z,99.99
2019-03-05T05:17:43.095Z,99.99
2019-03-05T05:18:43.077Z,99.99
2019-03-05T05:19:43.052Z,99.99
2019-03-05T05:20:43.049Z,99.99
2019-03-05T05:21:43.011Z,99.99
2019-03-05T05:22:42.988Z,99.99
2019-03-05T05:23:42.965Z,99.99
2019-03-05T05:24:42.948Z,99.99
2019-03-05T05:25:42.923Z,99.99
2019-03-05T05:26:42.903Z,99.99
2019-03-05T05:27:42.879Z,99.99
2019-03-05T05:28:42.856Z,99.99
2019-03-05T05:29:42.833Z,99.99
2019-03-05T05:30:42.813Z,99.99
2019-03-05T05:31:42.797Z,99.99
2019-03-05T05:32:42.775Z,99.99
2019-03-05T05:33:42.753Z,99.99
2019-03-05T05:34:42.729Z,99.99
2019-03-05T05:35:42.707Z,99.99
2019-03-05T05:36:42.689Z,99.99
2019-03-05T05:37:42.662Z,99.99
2019-03-05T05:38:42.643Z,99.99
2019-03-05T05:39:42.621Z,99.99
2019-03-05T05:40:42.597Z,99.99
2019-03-05T05:41:42.574Z,99.99
2019-03-05T05:42:42.551Z,99.99
2019-03-05T05:43:42.531Z,99.99
2019-03-05T05:44:42.511Z,99.99
2019-03-05T05:45:42.486Z,99.99
2019-03-05T05:46:42.467Z,99.99
2019-03-05T05:47:42.452Z,99.99
2019-03-05T05:48:42.421Z,99.99
2019-03-05T05:49:42.402Z,99.99
2019-03-05T05:50:42.379Z,99.99
2019-03-05T05:51:44.353Z,99.99
2019-03-05T05:52:42.334Z,99.99
2019-03-05T05:53:42.315Z,99.99
2019-03-05T05:54:42.289Z,99.99
2019-03-05T05:55:42.278Z,99.99
2019-03-05T05:56:42.247Z,99.99
2019-03-05T05:57:42.223Z,99.99
2019-03-05T05:58:42.203Z,99.99
2019-03-05T05:59:42.181Z,99.99
2019-03-05T06:00:42.163Z,99.99
2019-03-05T06:01:42.137Z,99.99
2019-03-05T06:02:42.117Z,99.99
2019-03-05T06:03:42.095Z,99.99
2019-03-05T06:04:42.076Z,99.99
2019-03-05T06:05:42.053Z,99.99
2019-03-05T06:06:42.028Z,99.99
2019-03-05T06:07:42.015Z,99.99
2019-03-05T06:08:41.985Z,99.99
2019-03-05T06:09:41.966Z,99.99
2019-03-05T06:10:41.944Z,99.99
2019-03-05T06:11:41.922Z,99.99
2019-03-05T06:12:41.897Z,99.99
2019-03-05T06:13:41.875Z,99.99
2019-03-05T06:14:41.854Z,99.99
2019-03-05T06:15:41.832Z,99.99
2019-03-05T06:16:41.815Z,99.99
2019-03-05T06:17:41.796Z,99.99
2019-03-05T06:18:41.773Z,99.99
2019-03-05T06:19:41.745Z,99.99
2019-03-05T06:20:42.821Z,99.99
2019-03-05T06:21:41.706Z,99.99
2019-03-05T06:22:41.703Z,99.99
2019-03-05T06:23:41.656Z,99.99
2019-03-05T06:24:41.638Z,99.99
2019-03-05T06:25:41.643Z,99.99
2019-03-05T06:26:41.594Z,99.99
2019-03-05T06:27:41.587Z,99.99
2019-03-05T06:28:41.565Z,99.99
2019-03-05T06:29:41.527Z,99.99
2019-03-05T06:30:41.506Z,99.99
2019-03-05T06:31:41.488Z,99.99
2019-03-05T06:32:41.463Z,99.99
2019-03-05T06:33:41.455Z,99.99
2019-03-05T06:34:41.423Z,99.99
2019-03-05T06:35:41.401Z,99.99
2019-03-05T06:36:41.379Z,99.99
2019-03-05T06:37:41.363Z,99.99
2019-03-05T06:38:41.334Z,99.99
2019-03-05T06:39:41.312Z,99.99
2019-03-05T06:40:41.308Z,99.99
2019-03-05T06:41:41.277Z,99.99
2019-03-05T06:42:41.252Z,99.99
2019-03-05T06:43:41.230Z,99.99
2019-03-05T06:44:41.211Z,99.99
2019-03-05T06:45:41.186Z,99.99
2019-03-05T06:46:41.164Z,99.99
2019-03-05T06:47:41.150Z,99.99
2019-03-05T06:48:41.121Z,99.99
2019-03-05T06:49:41.099Z,99.99
2019-03-05T06:50:41.090Z,99.99
2019-03-05T06:51:41.054Z,99.99
2019-03-05T06:52:41.037Z,99.99
2019-03-05T06:53:41.015Z,99.99
2019-03-05T06:54:40.995Z,99.99
2019-03-05T06:55:40.970Z,99.99
2019-03-05T06:56:40.946Z,99.99
2019-03-05T06:57:40.927Z,99.99
2019-03-05T06:58:40.905Z,99.99
2019-03-05T06:59:40.882Z,99.99
2019-03-05T07:00:40.867Z,99.99
2019-03-05T07:01:40.839Z,99.99
2019-03-05T07:02:40.837Z,99.99
2019-03-05T07:03:40.795Z,99.99
2019-03-05T07:04:40.779Z,99.99
2019-03-05T07:05:40.752Z,99.99
2019-03-05T07:06:40.730Z,99.99
2019-03-05T07:07:40.709Z,99.99
2019-03-05T07:08:40.690Z,99.99
2019-03-05T07:09:40.672Z,99.99
2019-03-05T07:10:40.646Z,99.99
2019-03-05T07:11:40.623Z,99.99
2019-03-05T07:12:40.604Z,99.99
2019-03-05T07:13:40.583Z,99.99
2019-03-05T07:14:40.574Z,99.99
2019-03-05T07:15:40.545Z,99.99
2019-03-05T07:16:40.527Z,99.99
2019-03-05T07:17:40.493Z,99.99
2019-03-05T07:18:40.474Z,99.99
2019-03-05T07:19:40.451Z,99.99
2019-03-05T07:20:40.428Z,99.99
2019-03-05T07:21:40.423Z,99.99
2019-03-05T07:22:40.386Z,99.99
2019-03-05T07:23:43.012Z,99.99
2019-03-05T07:24:40.353Z,99.99
2019-03-05T07:25:40.321Z,99.99
2019-03-05T07:26:40.305Z,99.99
2019-03-05T07:27:40.279Z,99.99
2019-03-05T07:28:40.257Z,99.99
2019-03-05T07:29:40.239Z,99.99
2019-03-05T07:30:40.216Z,99.99
2019-03-05T07:31:40.213Z,99.99
2019-03-05T07:32:40.174Z,99.99
2019-03-05T07:33:40.154Z,99.99
2019-03-05T07:34:40.131Z,99.99
2019-03-05T07:35:40.140Z,99.99
2019-03-05T07:36:40.094Z,99.99
2019-03-05T07:37:40.078Z,99.99
2019-03-05T07:38:40.051Z,99.99
2019-03-05T07:39:40.030Z,99.99
2019-03-05T07:40:40.017Z,99.99
2019-03-05T07:41:39.991Z,99.99
2019-03-05T07:42:39.970Z,99.99
2019-03-05T07:43:39.950Z,99.99
2019-03-05T07:44:39.935Z,99.99
2019-03-05T07:45:39.919Z,99.99
2019-03-05T07:46:39.895Z,99.99
2019-03-05T07:47:39.876Z,99.99
2019-03-05T07:48:39.861Z,99.99
2019-03-05T07:49:43.887Z,99.99
2019-03-05T07:50:39.827Z,99.99
2019-03-05T07:51:39.804Z,98.98
2019-03-05T07:52:39.789Z,97.84
2019-03-05T07:53:39.763Z,95.84
2019-03-05T07:54:39.747Z,94.79
2019-03-05T07:55:39.738Z,94.17
2019-03-05T07:56:39.719Z,93.17
2019-03-05T07:57:39.695Z,91.65
2019-03-05T07:58:39.685Z,89.26
2019-03-05T07:59:39.670Z,89.94
2019-03-05T08:00:39.655Z,91.37
2019-03-05T08:01:39.639Z,92.89
2019-03-05T08:02:39.620Z,95.51
2019-03-05T08:03:39.607Z,96.55
2019-03-05T08:04:39.581Z,98.27
2019-03-05T08:05:39.560Z,96.12
2019-03-05T08:06:39.558Z,95.51
2019-03-05T08:07:39.530Z,93.41
2019-03-05T08:08:39.512Z,91.84
2019-03-05T08:09:39.497Z,88.45
2019-03-05T08:10:39.480Z,86.16
2019-03-05T08:11:39.473Z,82.67
2019-03-05T08:12:39.459Z,81.58
2019-03-05T08:13:39.438Z,83.06
2019-03-05T08:14:39.432Z,85.12
2019-03-05T08:15:39.419Z,86.84
2019-03-05T08:16:39.395Z,88.89
2019-03-05T08:17:39.382Z,88.79
2019-03-05T08:18:39.374Z,90.22
2019-03-05T08:19:39.351Z,91.51
2019-03-05T08:20:39.336Z,93.18
2019-03-05T08:21:39.324Z,94.51
2019-03-05T08:22:39.315Z,95.65
2019-03-05T08:23:39.287Z,95.89
2019-03-05T08:24:39.275Z,97.41
2019-03-05T08:25:39.255Z,98.65
2019-03-05T08:26:39.235Z,99.79
2019-03-05T08:27:39.221Z,99.99
2019-03-05T08:28:39.202Z,99.99
2019-03-05T08:29:39.188Z,99.99
2019-03-05T08:30:39.167Z,99.99
2019-03-05T08:31:39.147Z,99.99
2019-03-05T08:32:39.133Z,99.99
2019-03-05T08:33:39.110Z,99.99
2019-03-05T08:34:39.091Z,99.99
2019-03-05T08:35:39.073Z,99.99
2019-03-05T08:36:39.054Z,99.99
2019-03-05T08:37:39.034Z,99.99
2019-03-05T08:38:39.021Z,99.99
2019-03-05T08:39:39.005Z,99.99
2019-03-05T08:40:38.980Z,99.99
2019-03-05T08:41:38.960Z,99.99
2019-03-05T08:42:38.944Z,99.99
2019-03-05T08:43:38.921Z,99.99
2019-03-05T08:44:49.679Z,99.99
2019-03-05T08:45:38.881Z,99.99
2019-03-05T08:46:38.868Z,99.99
2019-03-05T08:47:38.846Z,99.99
2019-03-05T08:48:38.832Z,99.99
2019-03-05T08:49:38.887Z,99.99
2019-03-05T08:50:38.789Z,99.99
2019-03-05T08:51:38.762Z,99.99
2019-03-05T08:52:38.744Z,99.99
2019-03-05T08:53:48.988Z,99.99
2019-03-05T08:54:38.702Z,99.99
2019-03-05T08:55:38.684Z,99.99
2019-03-05T08:56:38.664Z,99.99
2019-03-05T08:57:38.640Z,99.99
2019-03-05T08:58:38.625Z,99.99
2019-03-05T08:59:38.616Z,99.99
2019-03-05T09:00:38.588Z,99.99
2019-03-05T09:01:38.565Z,99.99
2019-03-05T09:02:48.058Z,99.99
2019-03-05T09:03:38.524Z,99.99
2019-03-05T09:04:38.499Z,99.99
2019-03-05T09:05:38.482Z,99.99
2019-03-05T09:06:38.458Z,99.99
2019-03-05T09:07:38.438Z,99.99
2019-03-05T09:08:38.632Z,99.99
2019-03-05T09:09:38.402Z,99.99
2019-03-05T09:10:38.379Z,99.99
2019-03-05T09:11:38.359Z,99.99
2019-03-05T09:12:38.332Z,99.99
2019-03-05T09:13:38.311Z,99.99
2019-03-05T09:14:38.295Z,99.99
2019-03-05T09:15:38.280Z,99.99
2019-03-05T09:16:38.256Z,99.99
2019-03-05T09:17:38.235Z,96.70
2019-03-05T09:18:38.214Z,95.12
2019-03-05T09:19:38.198Z,94.74
2019-03-05T09:20:38.177Z,93.22
2019-03-05T09:21:38.157Z,93.84
2019-03-05T09:22:38.143Z,94.46
2019-03-05T09:23:38.131Z,93.13
2019-03-05T09:24:38.108Z,93.13
2019-03-05T09:25:38.086Z,94.79
2019-03-05T09:26:38.078Z,97.13
2019-03-05T09:27:38.050Z,99.12
2019-03-05T09:28:38.037Z,98.03
2019-03-05T09:29:38.015Z,96.12
2019-03-05T09:30:37.996Z,96.03
2019-03-05T09:31:37.981Z,97.17
2019-03-05T09:32:37.966Z,98.13
2019-03-05T09:33:37.937Z,97.88
2019-03-05T09:34:37.927Z,98.55
2019-03-05T09:35:37.902Z,99.99
2019-03-05T09:36:37.884Z,99.99
2019-03-05T09:37:37.863Z,99.99
2019-03-05T09:38:37.844Z,99.99
2019-03-05T09:39:37.831Z,99.99
2019-03-05T09:40:37.808Z,99.99
2019-03-05T09:41:37.789Z,99.99
2019-03-05T09:42:40.182Z,99.99
2019-03-05T09:43:37.749Z,99.99
2019-03-05T09:44:37.738Z,99.99
2019-03-05T09:45:37.710Z,99.99
2019-03-05T09:46:37.692Z,99.99
2019-03-05T09:47:37.674Z,99.99
2019-03-05T09:48:37.661Z,99.99
2019-03-05T09:49:37.631Z,99.99
2019-03-05T09:50:37.614Z,99.99
2019-03-05T09:51:37.596Z,99.99
2019-03-05T09:52:37.582Z,99.55
2019-03-05T09:53:37.561Z,98.88
2019-03-05T09:54:37.536Z,97.36
2019-03-05T09:55:37.520Z,96.60
2019-03-05T09:56:37.498Z,95.84
2019-03-05T09:57:37.488Z,96.74
2019-03-05T09:58:37.462Z,97.98
2019-03-05T09:59:37.448Z,98.46
2019-03-05T10:00:37.421Z,98.83
2019-03-05T10:01:37.400Z,99.02
2019-03-05T10:02:37.383Z,99.60
2019-03-05T10:03:37.360Z,99.88
2019-03-05T10:04:37.341Z,99.99
2019-03-05T10:05:37.329Z,99.99
2019-03-05T10:06:37.303Z,99.99
2019-03-05T10:07:37.283Z,99.99
2019-03-05T10:08:37.265Z,99.99
2019-03-05T10:09:37.242Z,99.99
2019-03-05T10:10:37.221Z,99.99
2019-03-05T10:11:37.200Z,99.99
2019-03-05T10:12:37.181Z,99.99
2019-03-05T10:13:37.162Z,99.99
2019-03-05T10:14:37.140Z,99.99
2019-03-05T10:15:37.122Z,99.99
2019-03-05T10:16:37.105Z,99.99
2019-03-05T10:17:38.103Z,99.99
2019-03-05T10:18:39.294Z,99.99
2019-03-05T10:19:38.558Z,99.22
2019-03-05T10:20:37.023Z,98.13
2019-03-05T10:21:45.872Z,96.41
2019-03-05T10:22:36.984Z,94.98
2019-03-05T10:23:36.960Z,94.03
2019-03-05T10:24:36.943Z,94.17
2019-03-05T10:25:36.923Z,93.98
2019-03-05T10:26:36.914Z,93.65
2019-03-05T10:27:36.886Z,93.84
2019-03-05T10:28:36.867Z,93.74
2019-03-05T10:29:36.845Z,93.41
2019-03-05T10:30:36.828Z,94.46
2019-03-05T10:31:36.809Z,95.22
2019-03-05T10:32:36.791Z,95.41
2019-03-05T10:33:36.769Z,95.22
2019-03-05T10:34:36.761Z,95.12
2019-03-05T10:35:36.729Z,95.79
2019-03-05T10:36:36.710Z,95.41
2019-03-05T10:37:36.690Z,95.41
2019-03-05T10:38:36.671Z,95.98
2019-03-05T10:39:36.653Z,95.12
2019-03-05T10:40:36.634Z,95.41
2019-03-05T10:41:36.610Z,94.93
2019-03-05T10:42:36.591Z,95.41
2019-03-05T10:43:36.576Z,95.32
2019-03-05T10:44:36.554Z,95.79
2019-03-05T10:45:36.537Z,95.41
2019-03-05T10:46:36.514Z,95.03
2019-03-05T10:47:36.495Z,95.12
2019-03-05T10:48:36.478Z,94.84
2019-03-05T10:49:36.455Z,94.37
2019-03-05T10:50:36.435Z,95.22
2019-03-05T10:51:36.414Z,95.32
2019-03-05T10:52:36.404Z,95.12
2019-03-05T10:53:36.377Z,95.60
2019-03-05T10:54:36.359Z,96.36
2019-03-05T10:55:36.347Z,96.26
2019-03-05T10:56:36.334Z,94.65
2019-03-05T10:57:36.300Z,94.56
2019-03-05T10:58:36.282Z,94.18
2019-03-05T10:59:36.262Z,93.65
2019-03-05T11:00:36.240Z,93.18
2019-03-05T11:01:36.218Z,92.51
2019-03-05T11:02:36.198Z,92.03
2019-03-05T11:03:36.240Z,91.99
2019-03-05T11:04:45.381Z,91.51
2019-03-05T11:05:36.143Z,91.75
2019-03-05T11:06:36.125Z,92.41
2019-03-05T11:07:36.103Z,91.27
2019-03-05T11:08:36.080Z,91.27
2019-03-05T11:09:36.057Z,91.37
2019-03-05T11:10:36.044Z,90.42
2019-03-05T11:11:36.022Z,89.65
2019-03-05T11:12:36.000Z,89.03
2019-03-05T11:13:35.995Z,88.27
2019-03-05T11:14:35.958Z,87.41
2019-03-05T11:15:35.945Z,87.23
2019-03-05T11:16:35.923Z,87.36
2019-03-05T11:17:35.904Z,86.55
2019-03-05T11:18:35.882Z,86.18
2019-03-05T11:19:35.873Z,86.27
2019-03-05T11:20:35.845Z,87.23
2019-03-05T11:21:35.824Z,87.37
2019-03-05T11:22:35.809Z,87.08
2019-03-05T11:23:35.792Z,88.13
2019-03-05T11:24:35.770Z,87.94
2019-03-05T11:25:35.747Z,86.99
2019-03-05T11:26:35.726Z,87.37
2019-03-05T11:27:35.709Z,87.37
2019-03-05T11:28:35.702Z,87.46
2019-03-05T11:29:35.670Z,87.08
2019-03-05T11:30:36.584Z,87.32
2019-03-05T11:31:35.629Z,88.27
2019-03-05T11:32:35.611Z,87.60
2019-03-05T11:33:35.610Z,86.94
2019-03-05T11:34:35.575Z,86.41
2019-03-05T11:35:35.560Z,85.55
2019-03-05T11:36:35.534Z,85.17
2019-03-05T11:37:35.518Z,84.31
2019-03-05T11:38:35.497Z,84.88
2019-03-05T11:39:35.495Z,84.26
2019-03-05T11:40:35.457Z,82.21
2019-03-05T11:41:35.445Z,80.92
2019-03-05T11:42:35.422Z,79.40
2019-03-05T11:43:35.401Z,79.11
2019-03-05T11:44:35.387Z,78.73
2019-03-05T11:45:35.371Z,78.73
2019-03-05T11:46:35.356Z,79.40
2019-03-05T11:47:35.329Z,79.68
2019-03-05T11:48:35.314Z,79.78
2019-03-05T11:49:35.290Z,79.83
2019-03-05T11:50:35.274Z,79.27
2019-03-05T11:51:35.257Z,80.22
2019-03-05T11:52:35.245Z,80.60
2019-03-05T11:53:35.227Z,80.02
2019-03-05T11:54:35.199Z,79.64
2019-03-05T11:55:35.186Z,79.60
2019-03-05T11:56:35.167Z,80.27
2019-03-05T11:57:35.145Z,81.51
2019-03-05T11:58:35.134Z,81.23
2019-03-05T11:59:35.124Z,81.13
2019-03-05T12:00:35.098Z,81.23
2019-03-05T12:01:35.076Z,81.60
2019-03-05T12:02:35.069Z,81.03
2019-03-05T12:03:35.030Z,81.70
2019-03-05T12:04:35.014Z,81.60
2019-03-05T12:05:34.990Z,82.65
2019-03-05T12:06:34.976Z,82.18
2019-03-05T12:07:34.959Z,81.70
2019-03-05T12:08:34.934Z,81.46
2019-03-05T12:09:34.917Z,81.26
2019-03-05T12:10:34.908Z,81.32
2019-03-05T12:11:34.878Z,81.13
2019-03-05T12:12:34.857Z,80.94
2019-03-05T12:13:34.879Z,80.75
2019-03-05T12:14:34.819Z,80.41
2019-03-05T12:15:34.804Z,79.93
2019-03-05T12:16:34.783Z,79.27
2019-03-05T12:17:34.768Z,79.17
2019-03-05T12:18:34.750Z,79.46
2019-03-05T12:19:34.725Z,79.46
2019-03-05T12:20:34.709Z,79.78
2019-03-05T12:21:34.689Z,79.68
2019-03-05T12:22:34.671Z,78.58
2019-03-05T12:23:34.649Z,77.53
2019-03-05T12:24:34.639Z,76.39
2019-03-05T12:25:36.204Z,76.39
2019-03-05T12:26:34.596Z,75.85
2019-03-05T12:27:35.989Z,74.61
2019-03-05T12:28:34.558Z,73.94
2019-03-05T12:29:34.540Z,74.04
2019-03-05T12:30:34.522Z,72.76
2019-03-05T12:31:34.510Z,72.38
2019-03-05T12:32:34.490Z,73.33
2019-03-05T12:33:34.469Z,72.76
2019-03-05T12:34:34.452Z,72.19
2019-03-05T12:35:35.507Z,72.44
2019-03-05T12:36:34.413Z,73.11
2019-03-05T12:37:34.472Z,73.11
2019-03-05T12:38:34.378Z,73.58
2019-03-05T12:39:34.364Z,73.58
2019-03-05T12:40:34.346Z,72.92
2019-03-05T12:41:34.324Z,73.52
2019-03-05T12:42:34.304Z,73.14
2019-03-05T12:43:34.293Z,72.76
2019-03-05T12:44:34.281Z,72.96
2019-03-05T12:45:34.250Z,72.44
2019-03-05T12:46:34.232Z,73.21
2019-03-05T12:47:34.218Z,76.16
2019-03-05T12:48:39.964Z,76.06
2019-03-05T12:49:34.183Z,76.06
2019-03-05T12:50:34.163Z,77.40
2019-03-05T12:51:34.144Z,77.06
2019-03-05T12:52:34.133Z,77.53